createdAt,value
2023-03-07T00:01:32.066Z,97855.80
2023-03-07T00:04:00.544Z,97859.86
2023-03-07T00:06:31.244Z,97866.52
2023-03-07T00:09:03.979Z,97875.10
2023-03-07T00:11:36.664Z,97882.24
2023-03-07T00:14:09.902Z,97891.07
2023-03-07T00:16:44.783Z,97905.06
2023-03-07T00:19:15.228Z,97909.08
2023-03-07T00:21:45.670Z,97910.83
2023-03-07T00:24:18.248Z,97910.06
2023-03-07T00:26:50.553Z,97911.27
2023-03-07T00:29:20.545Z,97910.18
2023-03-07T00:35:36.214Z,97904.75
2023-03-07T00:38:04.629Z,97904.50
2023-03-07T00:40:32.669Z,97900.36
2023-03-07T00:43:00.695Z,97898.14
2023-03-07T01:00:00.800Z,97900.27
2023-03-07T01:02:30.903Z,97895.89
2023-03-07T01:04:58.733Z,97895.64
2023-03-07T01:07:29.159Z,97891.39
2023-03-07T06:27:13.168Z,97755.06
2023-03-07T06:29:40.486Z,97749.94
2023-03-07T06:32:07.438Z,97736.55
2023-03-07T06:34:37.598Z,97728.36
2023-03-07T06:37:05.012Z,97719.86
2023-03-07T06:39:31.801Z,97707.23
2023-03-07T06:42:00.208Z,97695.67
2023-03-07T06:44:28.705Z,97686.05
2023-03-07T06:46:55.367Z,97674.79
2023-03-07T06:49:25.073Z,97668.77
2023-03-07T06:51:54.270Z,97653.73
2023-03-07T06:54:23.553Z,97638.80
2023-03-07T06:56:51.150Z,97627.79
2023-03-07T06:59:19.653Z,97613.20
2023-03-07T07:01:48.012Z,97599.09
2023-03-07T07:04:20.080Z,97586.86
2023-03-07T07:06:49.008Z,97579.34
2023-03-07T07:09:16.721Z,97574.80
2023-03-07T07:11:45.974Z,97568.06
2023-03-07T07:14:12.861Z,97562.10
2023-03-07T07:16:40.021Z,97553.05
2023-03-07T07:19:08.507Z,97538.70
2023-03-07T07:21:36.088Z,97529.73
2023-03-07T07:24:04.122Z,97530.17
2023-03-07T07:26:33.879Z,97510.57
2023-03-07T07:29:00.800Z,97493.45
2023-03-07T07:31:29.566Z,97457.52
2023-03-07T07:33:59.442Z,97439.06
2023-03-07T07:36:29.506Z,97432.53
2023-03-07T07:38:56.356Z,97427.36
2023-03-07T07:41:24.497Z,97420.64
2023-03-07T07:43:54.105Z,97420.31
2023-03-07T07:46:29.692Z,97415.13
2023-03-07T07:48:56.895Z,97405.48
2023-03-07T07:58:45.691Z,97387.05
2023-03-07T08:01:21.293Z,97376.84
2023-03-07T08:03:49.061Z,97363.11
2023-03-07T08:06:29.004Z,97358.23
2023-03-07T08:08:59.588Z,97349.84
2023-03-07T08:11:26.423Z,97345.77
2023-03-07T08:13:53.554Z,97347.84
2023-03-07T08:16:22.207Z,97346.40
2023-03-07T08:19:00.444Z,97347.58
2023-03-07T08:21:30.834Z,97342.30
2023-03-07T08:24:00.145Z,97341.55
2023-03-07T08:26:26.989Z,97350.55
2023-03-07T08:28:57.789Z,97358.96
2023-03-07T08:31:27.343Z,97362.81
2023-03-07T08:33:54.909Z,97373.02
2023-03-07T08:36:24.780Z,97392.69
2023-03-07T08:38:53.071Z,97422.83
2023-03-07T08:41:21.953Z,97441.37
2023-03-07T08:43:49.209Z,97458.82
2023-03-07T08:46:16.841Z,97474.86
2023-03-07T09:17:02.298Z,97555.27
2023-03-07T09:19:31.318Z,97550.89
2023-03-07T09:22:03.493Z,97540.05
2023-03-07T09:24:30.484Z,97537.38
2023-03-07T09:27:01.866Z,97533.86
2023-03-07T09:29:28.672Z,97530.83
2023-03-07T09:31:55.520Z,97524.33
2023-03-07T09:34:24.680Z,97521.04
2023-03-07T09:36:54.497Z,97523.97
2023-03-07T09:39:26.216Z,97520.61
2023-03-07T09:42:06.735Z,97523.07
2023-03-07T09:44:36.029Z,97527.66
2023-03-07T09:47:49.513Z,97530.20
2023-03-07T09:50:44.525Z,97535.77
2023-03-07T09:53:35.356Z,97541.80
2023-03-07T09:56:06.688Z,97559.23
2023-03-07T09:58:40.535Z,97603.08
2023-03-07T10:01:12.206Z,97619.80
2023-03-07T10:04:05.854Z,97623.06
2023-03-07T10:06:40.304Z,97634.40
2023-03-07T10:09:14.180Z,97633.11
2023-03-07T10:12:00.543Z,97633.88
2023-03-07T10:14:56.502Z,97632.97
2023-03-07T10:17:51.688Z,97636.72
2023-03-07T10:20:30.554Z,97637.49
2023-03-07T10:23:42.245Z,97649.11
2023-03-07T10:26:11.845Z,97655.14
2023-03-07T10:28:42.543Z,97649.14
2023-03-07T10:31:24.242Z,97649.41
2023-03-07T10:33:52.831Z,97660.19
2023-03-07T10:36:41.365Z,97663.61
2023-03-07T10:39:29.989Z,97675.23
2023-03-07T10:42:02.286Z,97670.13
2023-03-07T10:44:33.419Z,97668.98
2023-03-07T10:47:03.080Z,97669.30
2023-03-07T10:49:43.097Z,97671.45
2023-03-07T10:52:20.594Z,97676.20
2023-03-07T10:54:47.442Z,97666.80
2023-03-07T10:57:17.181Z,97648.37
2023-03-07T10:59:47.713Z,97643.81
2023-03-07T11:02:35.437Z,97647.63
2023-03-07T11:05:27.502Z,97655.47
2023-03-07T11:07:54.303Z,97655.70
2023-03-07T11:10:34.374Z,97656.88
2023-03-07T11:13:27.459Z,97654.89
2023-03-07T11:16:14.347Z,97656.30
2023-03-07T11:18:45.443Z,97654.27
2023-03-07T11:21:34.520Z,97640.64
2023-03-07T11:24:04.740Z,97647.04
2023-03-07T11:26:39.582Z,97659.73
2023-03-07T11:29:14.689Z,97665.19
2023-03-07T11:32:05.777Z,97662.61
2023-03-07T11:34:55.139Z,97665.70
2023-03-07T11:37:38.996Z,97683.16
2023-03-07T11:40:40.330Z,97680.03
2023-03-07T11:43:15.578Z,97673.88
2023-03-07T11:46:10.945Z,97685.06
2023-03-07T11:48:56.025Z,97686.64
2023-03-07T11:51:44.215Z,97673.91
2023-03-07T11:54:25.958Z,97676.85
2023-03-07T11:56:59.846Z,97680.42
2023-03-07T11:59:35.599Z,97692.40
2023-03-07T12:02:26.156Z,97699.88
2023-03-07T12:05:15.904Z,97684.80
2023-03-07T12:07:56.659Z,97693.39
2023-03-07T12:10:55.683Z,97696.03
2023-03-07T12:13:55.612Z,97700.63
2023-03-07T12:16:37.654Z,97699.84
2023-03-07T12:19:10.250Z,97689.17
2023-03-07T12:21:36.913Z,97689.43
2023-03-07T12:24:16.984Z,97692.51
2023-03-07T12:26:57.095Z,97702.44
2023-03-07T12:29:26.503Z,97699.54
2023-03-07T12:31:58.766Z,97687.85
2023-03-07T12:34:47.417Z,97687.44
2023-03-07T12:37:26.729Z,97694.62
2023-03-07T12:40:03.206Z,97702.73
2023-03-07T12:42:41.788Z,97712.70
2023-03-07T12:45:27.082Z,97748.48
2023-03-07T12:47:54.581Z,97746.15
2023-03-07T12:50:45.892Z,97744.63
2023-03-07T12:53:34.953Z,97747.02
2023-03-07T12:56:25.076Z,97751.66
2023-03-07T12:58:58.778Z,97749.25
2023-03-07T13:01:34.430Z,97746.13
2023-03-07T13:04:32.504Z,97736.20
2023-03-07T13:07:27.196Z,97728.48
2023-03-07T13:26:24.282Z,97712.91
2023-03-07T13:28:52.857Z,97699.20
2023-03-07T13:31:20.685Z,97690.95
2023-03-07T13:33:50.905Z,97688.45
2023-03-07T13:36:37.830Z,97684.54
2023-03-07T13:39:37.182Z,97673.84
2023-03-07T13:42:39.394Z,97673.91
2023-03-07T13:45:39.349Z,97679.52
2023-03-07T13:48:19.925Z,97677.70
2023-03-07T13:50:50.730Z,97673.66
2023-03-07T13:53:27.740Z,97666.95
2023-03-07T13:56:20.082Z,97661.02
2023-03-07T13:59:10.042Z,97667.28
2023-03-07T14:02:01.406Z,97664.70
2023-03-07T14:04:55.491Z,97658.15
2023-03-07T14:07:34.092Z,97646.61
2023-03-07T14:10:22.357Z,97643.73
2023-03-07T14:13:30.060Z,97645.17
2023-03-07T14:16:12.364Z,97642.23
2023-03-07T14:19:01.637Z,97631.08
2023-03-07T14:21:37.793Z,97622.14
2023-03-07T14:24:23.429Z,97621.23
2023-03-07T14:26:58.357Z,97615.68
2023-03-07T14:29:29.883Z,97620.08
2023-03-07T14:32:00.744Z,97616.23
2023-03-07T14:34:40.199Z,97618.14
2023-03-07T14:37:16.112Z,97629.69
2023-03-07T14:39:51.870Z,97621.34
2023-03-07T14:42:36.970Z,97624.70
2023-03-07T14:45:15.912Z,97621.52
2023-03-07T14:48:02.011Z,97621.94
2023-03-07T14:50:33.888Z,97641.54
2023-03-07T14:53:30.438Z,97630.84
2023-03-07T14:56:01.422Z,97627.91
2023-03-07T14:58:32.421Z,97626.30
2023-03-07T15:01:11.702Z,97642.31
2023-03-07T15:03:52.161Z,97634.96
2023-03-07T15:06:24.005Z,97616.69
2023-03-07T15:08:57.302Z,97612.70
2023-03-07T15:11:28.249Z,97603.58
2023-03-07T15:14:01.081Z,97604.21
2023-03-07T15:16:36.240Z,97607.54
2023-03-07T15:19:20.093Z,97609.17
2023-03-07T15:21:53.096Z,97608.58
2023-03-07T15:24:37.694Z,97612.80
2023-03-07T15:27:14.381Z,97609.15
2023-03-07T15:29:46.809Z,97599.63
2023-03-07T15:32:40.340Z,97597.17
2023-03-07T15:35:10.970Z,97593.92
2023-03-07T15:38:00.168Z,97593.79
2023-03-07T15:40:36.148Z,97589.70
2023-03-07T15:43:17.779Z,97590.65
2023-03-07T15:46:18.977Z,97588.85
2023-03-07T15:48:54.561Z,97593.52
2023-03-07T15:51:24.671Z,97599.42
2023-03-07T15:54:01.127Z,97600.88
2023-03-07T15:56:36.287Z,97598.50
2023-03-07T15:59:10.043Z,97590.82
2023-03-07T16:01:37.994Z,97582.27
2023-03-07T16:04:06.087Z,97579.63
2023-03-07T16:06:44.394Z,97585.04
2023-03-07T16:09:18.439Z,97584.90
2023-03-07T16:11:50.845Z,97579.23
2023-03-07T16:14:27.010Z,97568.43
2023-03-07T16:17:05.377Z,97559.17
2023-03-07T16:19:33.568Z,97563.20
2023-03-07T16:22:04.641Z,97564.52
2023-03-07T16:24:33.941Z,97560.16
2023-03-07T16:27:02.192Z,97572.83
2023-03-07T16:29:30.310Z,97572.13
2023-03-07T16:32:01.428Z,97562.96
2023-03-07T16:34:30.023Z,97586.94
2023-03-07T16:36:58.717Z,97577.36
2023-03-07T16:39:27.026Z,97560.61
2023-03-07T16:41:58.316Z,97560.69
2023-03-07T16:44:28.065Z,97563.73
2023-03-07T16:47:03.660Z,97564.05
2023-03-07T16:49:33.735Z,97590.40
2023-03-07T16:52:06.175Z,97578.11
2023-03-07T16:54:35.130Z,97581.75
2023-03-07T16:57:14.331Z,97573.19
2023-03-07T16:59:50.406Z,97572.16
2023-03-07T17:02:21.208Z,97571.33
2023-03-07T17:04:52.455Z,97566.89
2023-03-07T17:07:24.003Z,97570.15
2023-03-07T17:09:55.324Z,97567.63
2023-03-07T17:12:24.842Z,97566.36
2023-03-07T17:14:53.755Z,97571.25
2023-03-07T17:17:28.393Z,97572.88
2023-03-07T17:19:56.505Z,97580.30
2023-03-07T17:22:26.805Z,97577.06
2023-03-07T17:24:54.651Z,97574.23
2023-03-07T17:27:22.614Z,97576.68
2023-03-07T17:29:55.479Z,97575.26
2023-03-07T17:32:23.806Z,97574.91
2023-03-07T17:34:52.367Z,97572.63
2023-03-07T17:37:23.665Z,97566.92
2023-03-07T17:39:56.889Z,97564.91
2023-03-07T17:42:30.064Z,97561.03
2023-03-07T17:45:02.566Z,97558.88
2023-03-07T17:47:31.245Z,97557.08
2023-03-07T17:50:01.247Z,97557.33
2023-03-07T17:52:29.464Z,97557.36
2023-03-07T17:54:57.921Z,97550.14
2023-03-07T17:57:27.720Z,97545.20
2023-03-07T18:00:02.822Z,97541.07
2023-03-07T18:02:49.815Z,97536.23
2023-03-07T18:05:19.875Z,97526.38
2023-03-07T18:07:54.248Z,97519.88
2023-03-07T18:10:23.427Z,97514.84
2023-03-07T18:12:53.863Z,97511.34
2023-03-07T18:15:25.568Z,97504.23
2023-03-07T18:17:53.962Z,97502.97
2023-03-07T18:20:25.475Z,97511.54
2023-03-07T18:22:53.642Z,97498.70
2023-03-07T18:25:25.631Z,97493.57
2023-03-07T18:27:56.367Z,97486.10
2023-03-07T18:30:24.615Z,97487.35
2023-03-07T18:32:55.585Z,97485.39
2023-03-07T18:35:23.969Z,97485.23
2023-03-07T18:37:54.554Z,97480.55
2023-03-07T18:40:24.810Z,97484.66
2023-03-07T18:43:00.546Z,97481.91
2023-03-07T18:45:29.166Z,97480.11
2023-03-07T18:48:02.246Z,97481.05
2023-03-07T18:50:34.397Z,97479.23
2023-03-07T18:53:05.641Z,97480.42
2023-03-07T18:55:38.281Z,97471.52
2023-03-07T18:58:08.745Z,97465.12
2023-03-07T19:00:36.756Z,97464.80
2023-03-07T19:03:10.174Z,97466.49
2023-03-07T19:05:51.138Z,97459.36
2023-03-07T19:08:21.671Z,97462.02
2023-03-07T19:10:49.722Z,97459.84
2023-03-07T19:13:17.940Z,97459.89
2023-03-07T19:15:46.012Z,97456.54
2023-03-07T19:18:16.643Z,97455.77
2023-03-07T19:20:44.583Z,97452.27
2023-03-07T19:23:13.484Z,97449.44
2023-03-07T19:25:41.599Z,97447.85
2023-03-07T19:28:14.901Z,97447.10
2023-03-07T19:30:43.321Z,97444.69
2023-03-07T19:33:11.633Z,97447.05
2023-03-07T19:35:41.739Z,97446.09
2023-03-07T19:38:09.905Z,97445.83
2023-03-07T19:40:37.917Z,97442.80
2023-03-07T19:43:17.243Z,97444.59
2023-03-07T19:45:56.091Z,97438.02
2023-03-07T19:48:26.875Z,97426.84
2023-03-07T19:50:57.317Z,97417.06
2023-03-07T19:53:28.081Z,97409.23
2023-03-07T19:55:56.840Z,97400.04
2023-03-07T19:58:29.557Z,97393.09
2023-03-07T20:01:00.449Z,97381.71
2023-03-07T20:03:28.631Z,97376.21
2023-03-07T20:05:57.241Z,97373.61
2023-03-07T20:08:26.489Z,97376.97
2023-03-07T20:11:08.780Z,97374.52
2023-03-07T20:13:40.437Z,97386.19
2023-03-07T20:16:10.480Z,97395.70
2023-03-07T20:18:39.781Z,97397.78
2023-03-07T20:21:26.285Z,97403.99
2023-03-07T20:24:05.230Z,97405.01
2023-03-07T20:26:36.448Z,97398.48
2023-03-07T20:29:06.751Z,97401.42
2023-03-07T20:31:39.789Z,97397.01
2023-03-07T20:34:16.138Z,97393.02
2023-03-07T20:36:45.457Z,97389.45
2023-03-07T20:39:16.596Z,97384.05
2023-03-07T20:41:45.252Z,97384.81
2023-03-07T20:44:15.494Z,97381.75
2023-03-07T20:46:43.709Z,97375.72
2023-03-07T20:49:14.711Z,97362.49
2023-03-07T20:51:46.506Z,97351.05
2023-03-07T20:54:16.650Z,97340.54
2023-03-07T20:56:47.034Z,97323.79
2023-03-07T20:59:17.523Z,97310.25
2023-03-07T21:01:46.095Z,97294.98
2023-03-07T21:04:21.107Z,97286.30
2023-03-07T21:06:49.272Z,97273.95
2023-03-07T21:09:18.389Z,97261.41
2023-03-07T21:11:49.257Z,97254.41
2023-03-07T21:14:19.374Z,97239.15
2023-03-07T21:16:47.555Z,97229.35
2023-03-07T21:19:16.277Z,97220.20
2023-03-07T21:21:44.824Z,97214.80
2023-03-07T22:06:38.567Z,97140.44
2023-03-07T22:09:07.831Z,97133.95
2023-03-07T22:11:36.207Z,97133.86
2023-03-07T22:14:22.685Z,97133.55
2023-03-07T22:16:54.236Z,97133.38
2023-03-07T22:19:46.756Z,97137.69
2023-03-07T22:22:15.929Z,97145.40
2023-03-07T22:25:16.667Z,97148.01
2023-03-07T22:28:43.684Z,97159.89
2023-03-07T22:31:16.868Z,97169.64
2023-03-07T22:37:08.367Z,97180.06
2023-03-07T22:39:38.825Z,97187.04
2023-03-07T22:42:09.304Z,97194.33
2023-03-07T22:44:39.968Z,97196.77
2023-03-07T22:47:10.704Z,97197.18
2023-03-07T22:50:25.596Z,97200.27
2023-03-07T22:53:28.659Z,97196.82
2023-03-07T23:45:54.583Z,97194.12
